createdAt,value
2019-04-07T00:06:45.336Z,21.50
2019-04-07T00:20:08.792Z,21.50
2019-04-07T00:33:30.994Z,21.50
2019-04-07T00:46:54.050Z,21.60
2019-04-07T01:00:17.446Z,21.50
2019-04-07T01:13:39.413Z,21.60
2019-04-07T01:40:04.443Z,21.50
2019-04-07T01:53:11.075Z,21.50
2019-04-07T02:06:18.875Z,21.50
2019-04-07T02:19:26.244Z,21.50
2019-04-07T02:32:32.952Z,21.50
2019-04-07T02:45:57.888Z,21.40
2019-04-07T02:59:19.950Z,21.40
2019-04-07T03:38:50.919Z,21.40
2019-04-07T03:51:58.225Z,21.40
2019-04-07T04:05:05.562Z,21.50
2019-04-07T04:18:13.793Z,21.40
2019-04-07T04:31:20.177Z,21.40
2019-04-07T04:44:44.307Z,21.30
2019-04-07T04:58:07.278Z,21.30
2019-04-07T05:11:30.364Z,21.40
2019-04-07T05:24:53.010Z,21.30
2019-04-07T05:38:15.886Z,21.20
2019-04-07T05:51:38.230Z,21.20
2019-04-07T06:05:01.221Z,21.30
2019-04-07T18:17:04.737Z,21.70
2019-04-07T18:30:14.438Z,21.60
2019-04-07T18:43:35.829Z,21.60
2019-04-07T18:56:59.196Z,21.30
2019-04-07T19:10:25.121Z,21.30
2019-04-07T19:23:45.188Z,21.10
2019-04-07T19:50:10.174Z,21.00
2019-04-07T20:03:16.139Z,20.80
2019-04-07T20:16:24.094Z,20.60
2019-04-07T20:29:31.668Z,20.50
2019-04-07T20:42:38.836Z,20.80
2019-04-07T20:56:02.106Z,21.30
2019-04-07T21:09:25.595Z,21.50
2019-04-07T21:22:47.736Z,21.50
2019-04-07T21:36:10.536Z,21.60
2019-04-07T21:49:35.625Z,21.60
2019-04-07T22:02:56.997Z,21.60
2019-04-07T22:16:18.941Z,21.70
2019-04-07T22:29:42.728Z,21.70
2019-04-07T22:43:04.537Z,21.70
2019-04-07T22:56:27.942Z,21.70
2019-04-07T23:22:52.066Z,21.80
2019-04-07T23:49:58.665Z,21.80
